San Rafeal, Colorado
Current Conditions -  °F | °C
As of 7:52 PM on Tuesday 21 Oct 2014 (Local Time) from KALS Reporting Station
Few Clouds Few Clouds  
Wind Chill: 50°   Ceiling: Unl
Heat Index: 50°   Visibility: 10mi
Dew Point: 38°   Wind: 13mph
Humidity: 63%   Direction: 190°S
Pressure: 30.11"   Gusts: NA
Location:  37.1816°N, 106.262°W
Report Text: KALS 220152Z AUTO 19011KT 10SM FEW090 10/03 A3011 RMK AO2 SLP167 T01000033
Loading
Personal Weather Stations






























Interactive Weather Map
Tropical Storm Tracking
New forecast layout! Learn more

10-Day Weather Forecast

Advertisements
Track Severe Weather on mobile